Time;durP1;ratioP1;P1;durP2;ratioP2;P2;SDS_P1;SDS_P2;PMS_P1;PMS_P2;Temp;Humidity;BMP_temperature;BMP_pressure;BME280_temperature;BME280_humidity;BME280_pressure;Samples;Min_cycle;Max_cycle;Signal;HPM_P1;HPM_P2
2023/01/06 00:01:12;;;;;;;3.97;2.65;;;;;;;10.01;75.33;97313.00;6012835;23;20435;-75
2023/01/06 00:03:40;;;;;;;3.28;2.30;;;;;;;10.00;75.50;97312.19;6012553;23;20023;-75
2023/01/06 00:06:11;;;;;;;3.80;2.20;;;;;;;10.00;75.75;97314.00;6012215;23;20102;-75
2023/01/06 00:08:39;;;;;;;3.38;2.10;;;;;;;10.01;75.77;97313.00;6012187;23;20031;-75
2023/01/06 00:11:07;;;;;;;3.42;2.75;;;;;;;10.02;75.65;97310.25;6012286;23;20106;-75
2023/01/06 00:13:35;;;;;;;4.22;2.92;;;;;;;10.04;75.77;97307.50;6012144;23;20024;-75
2023/01/06 00:16:04;;;;;;;4.15;2.60;;;;;;;10.05;75.78;97298.69;6012203;23;20030;-74
2023/01/06 00:18:33;;;;;;;3.90;3.10;;;;;;;10.06;75.92;97301.13;6011622;23;20484;-75
2023/01/06 00:21:01;;;;;;;4.65;3.33;;;;;;;10.08;75.71;97295.78;6012147;23;20023;-74
2023/01/06 00:23:29;;;;;;;2.83;2.38;;;;;;;10.09;75.64;97292.19;6011905;23;20030;-75
2023/01/06 00:25:57;;;;;;;3.15;2.53;;;;;;;10.11;75.72;97285.00;6011771;23;20034;-75
2023/01/06 00:28:24;;;;;;;4.22;2.80;;;;;;;10.13;75.83;97287.47;6011396;23;20028;-74
2023/01/06 00:30:52;;;;;;;4.25;3.03;;;;;;;10.13;75.91;97285.66;6012406;23;20035;-75
2023/01/06 00:33:20;;;;;;;4.05;2.30;;;;;;;10.16;75.63;97284.53;6011632;23;20024;-76
2023/01/06 00:35:49;;;;;;;3.95;2.17;;;;;;;10.16;75.82;97279.31;6011333;23;20472;-74
2023/01/06 00:38:16;;;;;;;4.47;2.58;;;;;;;10.15;75.75;97281.09;6011488;23;20023;-75
2023/01/06 00:40:44;;;;;;;2.92;2.63;;;;;;;10.16;75.97;97274.91;6011686;23;20024;-75
2023/01/06 00:43:11;;;;;;;2.92;2.50;;;;;;;10.18;75.96;97278.16;6012083;23;20023;-74
2023/01/06 00:45:39;;;;;;;5.32;2.92;;;;;;;10.19;75.89;97268.53;6012124;23;20023;-75
2023/01/06 00:48:06;;;;;;;4.55;3.08;;;;;;;10.19;75.90;97272.00;6011805;23;20027;-75
2023/01/06 00:50:34;;;;;;;3.53;2.92;;;;;;;10.19;75.94;97269.38;6011518;23;20028;-75
2023/01/06 00:53:03;;;;;;;6.05;3.00;;;;;;;10.19;76.10;97274.59;6011862;23;20030;-75
2023/01/06 00:55:30;;;;;;;4.95;3.25;;;;;;;10.18;76.15;97267.72;6012082;23;20023;-75
2023/01/06 00:57:58;;;;;;;4.05;2.80;;;;;;;10.19;76.17;97266.78;6011202;23;20030;-75
2023/01/06 01:00:25;;;;;;;4.95;2.85;;;;;;;10.20;76.12;97264.97;6011879;23;20028;-74
2023/01/06 01:02:53;;;;;;;4.00;3.00;;;;;;;10.21;76.07;97271.81;6011155;23;20364;-75
2023/01/06 01:05:20;;;;;;;3.63;2.70;;;;;;;10.22;76.25;97268.22;6011524;23;20023;-74
2023/01/06 01:07:48;;;;;;;3.55;2.60;;;;;;;10.21;75.94;97269.19;6011799;23;20027;-75
2023/01/06 01:10:17;;;;;;;3.95;2.70;;;;;;;10.19;75.95;97268.53;6011709;23;20030;-74
2023/01/06 01:12:44;;;;;;;4.43;2.88;;;;;;;10.18;75.85;97272.94;6011579;23;20026;-74
2023/01/06 01:15:12;;;;;;;2.20;2.00;;;;;;;10.17;75.71;97266.13;6011714;23;20051;-75
2023/01/06 01:17:39;;;;;;;2.65;2.20;;;;;;;10.13;75.68;97264.81;6011797;23;20024;-74
2023/01/06 01:20:08;;;;;;;4.13;2.60;;;;;;;10.09;75.92;97266.09;6010717;23;20107;-75
2023/01/06 01:22:36;;;;;;;2.75;2.50;;;;;;;10.06;76.22;97258.63;6010957;23;20487;-74
2023/01/06 01:25:04;;;;;;;3.35;2.60;;;;;;;10.05;76.10;97263.00;6011592;23;20024;-74
2023/01/06 01:27:33;;;;;;;3.80;2.63;;;;;;;10.04;76.22;97260.56;6010890;23;20027;-74
2023/01/06 01:30:00;;;;;;;3.10;2.70;;;;;;;10.05;76.54;97262.19;6011298;23;20024;-74
2023/01/06 01:32:28;;;;;;;3.20;2.90;;;;;;;10.06;76.37;97261.22;6010721;23;20030;-75
2023/01/06 01:34:55;;;;;;;4.60;2.97;;;;;;;10.06;76.33;97261.22;6011408;23;20024;-75
2023/01/06 01:37:23;;;;;;;6.38;3.13;;;;;;;10.06;76.41;97263.84;6011860;23;20034;-75
2023/01/06 01:39:50;;;;;;;3.47;3.08;;;;;;;10.07;76.50;97265.44;6011723;23;20029;-74
2023/01/06 01:42:20;;;;;;;5.00;2.88;;;;;;;10.09;76.70;97263.50;6011494;23;20028;-75
2023/01/06 01:45:04;;;;;;;4.03;3.13;;;;;;;10.10;76.93;97271.16;6010941;23;20465;-75
2023/01/06 01:47:43;;;;;;;4.90;2.72;;;;;;;10.14;77.16;97274.25;6011100;23;20028;-75
2023/01/06 01:50:18;;;;;;;4.13;3.10;;;;;;;10.16;76.85;97263.66;6011156;23;20080;-74
2023/01/06 01:52:49;;;;;;;3.53;2.72;;;;;;;10.16;76.54;97274.09;6010941;23;20042;-75
2023/01/06 01:55:18;;;;;;;3.95;2.53;;;;;;;10.17;76.37;97267.91;6011308;23;20023;-74
2023/01/06 01:57:50;;;;;;;4.45;2.83;;;;;;;10.16;76.23;97264.47;6018403;23;20034;-74
2023/01/06 02:00:20;;;;;;;3.58;2.67;;;;;;;10.16;76.61;97259.25;6032756;23;20487;-74
2023/01/06 02:02:48;;;;;;;3.38;2.58;;;;;;;10.18;76.43;97249.47;6033108;23;20047;-74
2023/01/06 02:05:26;;;;;;;2.30;1.92;;;;;;;10.21;76.64;97259.59;6015408;23;20028;-74
2023/01/06 02:07:56;;;;;;;3.60;1.98;;;;;;;10.22;76.35;97256.00;6013636;23;20027;-74
2023/01/06 02:10:24;;;;;;;2.17;1.85;;;;;;;10.24;76.17;97238.41;6012778;23;20055;-75
2023/01/06 02:12:54;;;;;;;1.98;1.70;;;;;;;10.24;76.11;97241.00;6010815;23;20034;-75
2023/01/06 02:15:26;;;;;;;2.20;1.90;;;;;;;10.25;76.05;97237.41;6011382;23;20501;-75
2023/01/06 02:18:25;;;;;;;2.13;1.90;;;;;;;10.27;76.42;97230.25;6010805;23;20024;-75
2023/01/06 02:21:09;;;;;;;2.35;1.95;;;;;;;10.27;75.78;97224.22;6016229;23;20041;-74
2023/01/06 02:23:55;;;;;;;2.97;1.92;;;;;;;10.26;75.76;97233.84;6036073;23;20035;-74
2023/01/06 02:26:59;;;;;;;3.28;1.80;;;;;;;10.27;75.93;97224.22;6036431;23;20042;-73
2023/01/06 02:29:43;;;;;;;;;;;;;;;10.29;75.88;97228.31;6011827;23;20027;-75
2023/01/06 02:32:24;;;;;;;1.85;1.60;;;;;;;10.29;75.54;97228.31;6011045;23;19940;-75
2023/01/06 02:35:09;;;;;;;4.78;1.83;;;;;;;10.29;75.77;97223.09;6011254;23;20046;-74
2023/01/06 02:37:48;;;;;;;2.00;1.60;;;;;;;10.29;75.75;97223.09;6011247;23;20030;-75
2023/01/06 02:40:28;;;;;;;3.53;1.80;;;;;;;10.29;75.45;97214.47;6010927;23;20099;-75
2023/01/06 02:43:09;;;;;;;1.63;1.52;;;;;;;10.28;75.41;97215.44;6011097;23;20023;-74
2023/01/06 02:45:48;;;;;;;1.73;1.60;;;;;;;10.29;75.57;97223.09;6010998;23;20026;-75
2023/01/06 02:48:24;;;;;;;2.42;1.83;;;;;;;10.31;75.86;97209.91;6010643;23;20099;-75
2023/01/06 02:51:00;;;;;;;1.80;1.40;;;;;;;10.31;75.37;97204.69;6011296;23;20028;-75
2023/01/06 02:53:39;;;;;;;3.63;1.63;;;;;;;10.31;75.12;97210.72;6010838;23;20019;-75
2023/01/06 02:56:07;;;;;;;0.80;0.80;;;;;;;10.27;74.97;97214.59;6010811;23;20364;-75
2023/01/06 02:58:44;;;;;;;1.38;1.10;;;;;;;10.24;75.45;97214.94;6010356;23;20023;-75
2023/01/06 03:01:16;;;;;;;1.10;0.90;;;;;;;10.24;75.40;97207.13;6010433;23;20031;-75
2023/01/06 03:03:48;;;;;;;2.08;1.20;;;;;;;10.24;75.16;97208.91;6014392;23;20044;-74
2023/01/06 03:06:18;;;;;;;0.80;0.80;;;;;;;10.22;75.13;97206.47;6035162;23;20059;-73
2023/01/06 03:08:48;;;;;;;1.42;0.88;;;;;;;10.24;75.48;97203.69;6035579;23;20043;-74
2023/01/06 03:11:16;;;;;;;1.83;1.00;;;;;;;10.25;75.07;97200.91;6021151;23;20476;-75
2023/01/06 03:13:48;;;;;;;3.13;1.40;;;;;;;10.23;75.01;97205.50;6012221;23;20099;-75
2023/01/06 03:16:16;;;;;;;1.75;1.10;;;;;;;10.21;74.88;97197.03;6011773;23;20027;-75
2023/01/06 03:18:47;;;;;;;2.83;1.48;;;;;;;10.20;74.98;97199.78;6010674;23;20023;-75
2023/01/06 03:21:18;;;;;;;4.55;2.90;;;;;;;10.21;74.91;97204.00;6011293;23;20024;-75
2023/01/06 03:23:47;;;;;;;2.65;2.10;;;;;;;10.21;74.95;97199.63;6011517;23;20107;-75
2023/01/06 03:26:15;;;;;;;3.00;2.40;;;;;;;10.22;74.85;97205.66;6011440;23;20106;-75
2023/01/06 03:28:42;;;;;;;2.67;2.28;;;;;;;10.25;74.86;97205.31;6011157;23;20031;-75
2023/01/06 03:31:15;;;;;;;4.15;2.25;;;;;;;10.26;75.14;97202.56;6010899;23;20024;-75
2023/01/06 03:33:56;;;;;;;3.63;2.05;;;;;;;10.27;74.87;97200.75;6010386;23;20024;-74
2023/01/06 03:36:34;;;;;;;3.40;2.55;;;;;;;10.28;74.61;97205.00;6010806;23;20031;-75
2023/01/06 03:39:11;;;;;;;3.53;1.98;;;;;;;10.28;74.81;97205.81;6010417;23;20041;-75
2023/01/06 03:44:39;;;;;;;3.50;2.40;;;;;;;10.31;75.08;97200.28;5985789;23;20039;-75
2023/01/06 03:47:15;;;;;;;3.20;2.10;;;;;;;10.33;75.09;97201.94;6011235;23;20024;-75
2023/01/06 03:49:52;;;;;;;2.70;1.75;;;;;;;10.36;74.88;97209.41;6010991;23;20024;-75
2023/01/06 03:52:27;;;;;;;2.55;2.35;;;;;;;10.35;74.76;97206.00;6012381;23;20047;-75
2023/01/06 03:55:00;;;;;;;2.03;1.83;;;;;;;10.37;75.47;97209.25;6012363;23;20055;-75
2023/01/06 03:57:31;;;;;;;;;;;;;;;10.41;75.18;97207.16;6013298;23;20024;-74
2023/01/06 04:00:02;;;;;;;2.63;1.85;;;;;;;10.40;75.10;97205.50;6012232;23;20005;-74
2023/01/06 04:02:30;;;;;;;3.22;1.70;;;;;;;10.39;74.83;97209.09;6012597;23;20024;-75
2023/01/06 04:05:09;;;;;;;3.35;1.40;;;;;;;10.39;75.27;97202.09;6012598;23;20031;-74
2023/01/06 04:07:38;;;;;;;1.15;1.13;;;;;;;10.40;75.30;97206.31;6012356;23;20098;-75
2023/01/06 04:10:06;;;;;;;2.03;1.70;;;;;;;10.40;75.21;97202.91;6011840;23;20024;-75
2023/01/06 04:12:39;;;;;;;2.40;1.17;;;;;;;10.41;75.33;97196.72;6012422;23;20098;-75
2023/01/06 04:15:09;;;;;;;3.92;1.70;;;;;;;10.41;75.10;97194.91;6012626;23;20213;-74
2023/01/06 04:17:37;;;;;;;1.85;1.60;;;;;;;10.39;74.82;97193.44;6012105;23;20023;-75
2023/01/06 04:20:07;;;;;;;1.38;1.27;;;;;;;10.37;74.65;97187.59;6011581;23;20511;-75
2023/01/06 04:22:35;;;;;;;1.35;1.17;;;;;;;10.35;74.64;97189.53;6011918;23;20030;-74
2023/01/06 04:25:04;;;;;;;1.95;1.10;;;;;;;10.33;74.63;97187.09;6011958;23;20097;-74
2023/01/06 04:27:31;;;;;;;1.30;1.20;;;;;;;10.35;74.90;97187.75;6012195;23;20464;-75
2023/01/06 04:29:59;;;;;;;3.70;1.60;;;;;;;10.36;74.88;97191.16;6012248;23;20039;-75
2023/01/06 04:32:26;;;;;;;1.65;1.55;;;;;;;10.37;75.36;97187.59;6011884;23;20023;-75
2023/01/06 04:34:54;;;;;;;1.85;1.20;;;;;;;10.39;75.41;97185.63;6012186;23;20024;-75
2023/01/06 04:37:23;;;;;;;3.05;1.70;;;;;;;10.38;74.42;97178.78;6011673;23;20487;-74
2023/01/06 04:39:50;;;;;;;1.58;1.48;;;;;;;10.37;74.22;97175.34;6011899;23;20047;-75
2023/01/06 04:42:18;;;;;;;2.80;1.77;;;;;;;10.37;74.05;97171.94;6011986;23;20039;-74
2023/01/06 04:44:45;;;;;;;1.40;1.30;;;;;;;10.36;73.96;97165.09;6011681;23;20099;-74
2023/01/06 04:47:13;;;;;;;2.20;2.00;;;;;;;10.34;73.91;97164.44;6011849;23;20089;-75
2023/01/06 04:49:41;;;;;;;2.60;1.88;;;;;;;10.34;74.27;97154.00;6011629;23;20034;-75
2023/01/06 04:52:08;;;;;;;4.60;2.42;;;;;;;10.33;74.06;97155.00;6011669;23;20028;-75
2023/01/06 04:54:37;;;;;;;5.85;3.63;;;;;;;10.29;73.69;97147.47;6011319;23;20372;-74
2023/01/06 04:57:05;;;;;;;6.43;2.83;;;;;;;10.25;73.68;97153.16;6011738;23;20024;-75
2023/01/06 04:59:32;;;;;;;8.73;4.43;;;;;;;10.21;73.64;97147.50;6011545;23;20030;-75
2023/01/06 05:02:00;;;;;;;16.48;6.68;;;;;;;10.21;73.83;97150.09;6011296;23;20027;-74
2023/01/06 05:04:27;;;;;;;10.00;5.15;;;;;;;10.20;73.79;97155.47;6011459;23;20020;-75
2023/01/06 05:07:03;;;;;;;22.70;9.68;;;;;;;10.19;73.90;97154.66;6011421;23;20468;-75
2023/01/06 05:09:30;;;;;;;10.25;4.93;;;;;;;10.20;73.78;97161.50;6011701;23;20334;-75
2023/01/06 05:11:59;;;;;;;7.85;4.28;;;;;;;10.19;73.65;97159.88;6011663;23;20030;-75
2023/01/06 05:14:27;;;;;;;4.18;3.03;;;;;;;10.17;73.68;97151.41;6011446;23;20030;-75
2023/01/06 05:16:54;;;;;;;5.43;2.92;;;;;;;10.17;73.88;97148.81;6011755;23;20028;-75
2023/01/06 05:19:22;;;;;;;5.50;2.50;;;;;;;10.20;74.42;97150.25;6011080;23;20024;-75
2023/01/06 05:21:50;;;;;;;5.72;3.78;;;;;;;10.22;74.79;97154.31;6011375;23;20031;-75
2023/01/06 05:24:17;;;;;;;9.02;3.63;;;;;;;10.24;74.18;97154.97;6011397;23;20020;-75
2023/01/06 05:26:45;;;;;;;5.00;3.65;;;;;;;10.22;73.78;97149.09;6011409;23;20110;-75
2023/01/06 05:29:16;;;;;;;3.53;2.50;;;;;;;10.21;73.65;97149.25;6011096;23;20034;-75
2023/01/06 05:31:44;;;;;;;5.05;2.80;;;;;;;10.19;73.82;97141.63;6012200;23;20023;-75
2023/01/06 05:34:11;;;;;;;5.72;3.28;;;;;;;10.16;73.92;97138.53;6011511;23;20046;-75
2023/01/06 05:36:39;;;;;;;6.50;2.70;;;;;;;10.15;74.40;97137.72;6014334;23;20024;-75
2023/01/06 05:39:06;;;;;;;5.25;2.88;;;;;;;10.18;74.85;97137.38;6031483;23;20036;-75
2023/01/06 05:41:34;;;;;;;3.03;2.50;;;;;;;10.19;74.94;97139.03;6032898;23;20063;-75
2023/01/06 05:44:01;;;;;;;3.22;2.40;;;;;;;10.21;75.04;97142.28;6019913;23;20495;-74
2023/01/06 05:46:30;;;;;;;4.20;2.28;;;;;;;10.20;74.03;97139.84;6014364;23;20020;-74
2023/01/06 05:49:00;;;;;;;3.75;2.25;;;;;;;10.18;74.37;97141.78;6012603;23;20030;-75
2023/01/06 05:51:28;;;;;;;2.40;2.00;;;;;;;10.15;73.78;97142.94;6012005;23;20035;-75
2023/01/06 05:53:56;;;;;;;2.60;2.05;;;;;;;10.12;74.19;97143.25;6011179;23;20090;-75
2023/01/06 05:56:24;;;;;;;2.47;2.10;;;;;;;10.10;74.39;97147.81;6012088;23;20030;-74
2023/01/06 05:58:53;;;;;;;2.22;2.00;;;;;;;10.10;74.47;97145.19;6011703;23;20520;-74
2023/01/06 06:01:23;;;;;;;1.60;1.50;;;;;;;10.11;75.01;97142.44;6011379;23;20102;-77
2023/01/06 06:03:53;;;;;;;3.20;1.48;;;;;;;10.11;74.40;97146.84;6011932;23;20028;-78
2023/01/06 06:06:23;;;;;;;2.15;1.60;;;;;;;10.10;74.49;97153.03;6011395;23;20030;-77
2023/01/06 06:08:51;;;;;;;2.47;1.50;;;;;;;10.09;73.98;97148.81;6010409;23;20032;-77
2023/01/06 06:11:19;;;;;;;1.95;1.80;;;;;;;10.05;73.67;97147.50;6010620;23;20024;-77
2023/01/06 06:13:48;;;;;;;3.97;2.42;;;;;;;10.01;73.62;97151.41;6015992;23;20039;-75
2023/01/06 06:16:17;;;;;;;3.00;1.90;;;;;;;9.98;73.94;97151.75;6014832;23;20023;-76
2023/01/06 06:18:49;;;;;;;4.43;2.05;;;;;;;9.95;73.82;97152.06;6036419;23;20024;-76
2023/01/06 06:21:19;;;;;;;2.53;2.22;;;;;;;9.92;73.56;97155.81;6036659;23;20099;-74
2023/01/06 06:23:47;;;;;;;2.70;1.95;;;;;;;9.93;74.29;97159.22;6020338;23;20047;-75
2023/01/06 06:26:15;;;;;;;3.00;1.95;;;;;;;9.94;73.97;97160.88;6010477;23;20456;-75
2023/01/06 06:28:42;;;;;;;2.30;2.10;;;;;;;9.94;73.63;97156.47;6010532;23;20047;-75
2023/01/06 06:31:12;;;;;;;4.95;2.70;;;;;;;9.93;73.48;97154.00;6010675;23;20024;-75
2023/01/06 06:33:40;;;;;;;4.13;2.40;;;;;;;9.92;73.63;97157.63;6010125;23;20027;-75
2023/01/06 06:36:10;;;;;;;4.95;3.00;;;;;;;9.91;73.60;97162.03;6009947;23;20043;-75
2023/01/06 06:38:39;;;;;;;5.00;2.90;;;;;;;9.92;73.90;97157.63;6010076;23;20031;-74
2023/01/06 06:41:07;;;;;;;4.40;3.08;;;;;;;9.88;73.59;97163.16;6009917;23;20020;-75
2023/01/06 06:43:34;;;;;;;6.75;3.53;;;;;;;9.87;73.63;97161.53;6010683;23;20099;-75
2023/01/06 06:46:02;;;;;;;4.25;3.10;;;;;;;9.85;73.71;97162.66;6010179;23;20090;-74
2023/01/06 06:48:30;;;;;;;5.30;2.80;;;;;;;9.83;73.64;97169.81;6009998;23;20027;-74
2023/01/06 06:50:58;;;;;;;5.20;3.10;;;;;;;9.81;73.79;97163.97;6010245;23;20023;-75
2023/01/06 06:53:26;;;;;;;4.93;3.15;;;;;;;9.82;73.94;97178.63;6010535;23;20028;-75
2023/01/06 06:55:55;;;;;;;4.35;3.05;;;;;;;9.79;73.81;97179.75;6015618;23;20030;-75
2023/01/06 06:58:23;;;;;;;5.68;3.13;;;;;;;9.76;73.56;97174.88;6034346;23;20059;-74
2023/01/06 07:00:51;;;;;;;4.38;3.58;;;;;;;9.74;73.61;97176.81;6034053;23;20079;-74
2023/01/06 07:03:19;;;;;;;3.85;2.95;;;;;;;9.68;73.48;97170.47;6019829;23;20364;-75
2023/01/06 07:05:48;;;;;;;4.65;3.10;;;;;;;9.63;73.55;97169.34;6012604;23;20034;-75
2023/01/06 07:08:16;;;;;;;4.45;3.30;;;;;;;9.58;73.63;97172.44;6011274;23;20034;-75
2023/01/06 07:10:43;;;;;;;6.65;3.58;;;;;;;9.54;73.33;97159.88;6011163;23;20031;-75
2023/01/06 07:13:12;;;;;;;4.60;2.63;;;;;;;9.48;73.53;97162.16;6010710;23;20027;-75
2023/01/06 07:15:40;;;;;;;3.47;3.08;;;;;;;9.43;73.56;97164.44;6010534;23;20103;-75
2023/01/06 07:18:08;;;;;;;3.72;3.05;;;;;;;9.40;73.65;97164.75;6010165;23;20027;-75
2023/01/06 07:20:37;;;;;;;5.38;3.10;;;;;;;9.40;73.79;97164.75;6010655;23;20024;-75
2023/01/06 07:23:05;;;;;;;5.95;3.60;;;;;;;9.36;73.39;97168.66;6010568;23;20028;-75
2023/01/06 07:25:32;;;;;;;4.28;2.97;;;;;;;9.31;73.54;97173.50;6011698;23;20024;-75
2023/01/06 07:28:04;;;;;;;4.82;2.63;;;;;;;9.27;73.52;97172.19;6011922;23;20046;-74
2023/01/06 07:30:33;;;;;;;3.70;3.40;;;;;;;9.22;73.39;97182.28;6012533;23;20419;-75
2023/01/06 07:33:01;;;;;;;4.82;2.97;;;;;;;9.19;73.36;97180.00;6011640;23;20028;-75
2023/01/06 07:35:29;;;;;;;5.30;2.45;;;;;;;9.15;73.27;97189.09;6012112;23;20019;-75
2023/01/06 07:38:02;;;;;;;3.55;2.58;;;;;;;9.11;73.19;97198.19;6011266;23;20030;-75
2023/01/06 07:40:29;;;;;;;3.22;2.95;;;;;;;9.07;73.06;97195.91;6012219;23;20024;-75
2023/01/06 07:42:57;;;;;;;3.45;3.15;;;;;;;9.01;72.90;97188.72;6011628;23;20031;-75
2023/01/06 07:45:24;;;;;;;6.10;2.92;;;;;;;8.97;72.98;97186.59;6012093;23;20027;-75
2023/01/06 07:47:55;;;;;;;2.50;2.30;;;;;;;8.92;73.27;97192.28;6011551;23;20024;-76
2023/01/06 07:50:23;;;;;;;3.30;2.90;;;;;;;8.91;72.94;97185.44;6012421;23;20044;-78
2023/01/06 07:52:53;;;;;;;3.20;2.90;;;;;;;8.89;72.82;97184.75;6010797;23;20107;-77
2023/01/06 07:55:20;;;;;;;3.00;2.70;;;;;;;8.86;73.00;97188.50;6010690;23;20019;-77
2023/01/06 07:57:48;;;;;;;4.95;3.47;;;;;;;8.87;73.27;97194.50;6011440;23;20031;-77
2023/01/06 08:00:16;;;;;;;4.43;3.38;;;;;;;8.86;73.09;97183.31;6011774;23;20385;-77
2023/01/06 08:02:43;;;;;;;5.07;2.97;;;;;;;8.83;72.73;97178.41;6011271;23;20019;-77
2023/01/06 08:05:12;;;;;;;3.97;3.30;;;;;;;8.80;72.62;97183.91;6011122;23;20476;-76
2023/01/06 08:07:40;;;;;;;2.97;2.53;;;;;;;8.75;72.92;97186.19;6011534;23;20024;-77
2023/01/06 08:10:08;;;;;;;3.35;2.90;;;;;;;8.74;73.04;97187.13;6011661;23;20032;-79
2023/01/06 08:12:35;;;;;;;4.22;2.88;;;;;;;8.76;73.00;97192.19;6012567;23;20024;-78
2023/01/06 08:15:04;;;;;;;3.85;2.83;;;;;;;8.78;73.25;97190.25;6011324;23;20055;-78
2023/01/06 08:17:32;;;;;;;3.45;3.00;;;;;;;8.81;73.25;97192.53;6011664;23;20020;-80
2023/01/06 08:19:59;;;;;;;4.38;3.10;;;;;;;8.82;73.29;97192.38;6011066;23;20051;-77
2023/01/06 08:22:28;;;;;;;8.10;3.88;;;;;;;8.86;73.24;97193.69;6012950;23;20038;-76
2023/01/06 08:24:56;;;;;;;3.90;2.58;;;;;;;8.88;73.20;97196.16;6011717;23;20099;-76
2023/01/06 08:27:23;;;;;;;9.25;4.90;;;;;;;8.88;73.22;97196.16;6012055;23;20356;-79
2023/01/06 08:29:53;;;;;;;6.80;4.32;;;;;;;8.91;73.56;97188.03;6011448;23;20034;-78
2023/01/06 08:32:21;;;;;;;9.32;5.63;;;;;;;8.95;73.23;97189.34;6011657;23;20027;-77
2023/01/06 08:34:49;;;;;;;9.25;5.95;;;;;;;8.97;73.28;97191.81;6011921;23;20020;-79
2023/01/06 08:37:16;;;;;;;6.10;4.00;;;;;;;8.99;73.35;97206.28;6011282;23;20364;-79
2023/01/06 08:39:45;;;;;;;4.68;3.88;;;;;;;9.05;73.45;97215.22;6011415;23;20035;-77
2023/01/06 08:42:13;;;;;;;3.90;2.95;;;;;;;9.13;73.42;97219.66;6011614;23;20034;-77
2023/01/06 08:44:41;;;;;;;4.25;2.90;;;;;;;9.20;73.59;97223.25;6011951;23;20028;-79
2023/01/06 08:49:50;;;;;;;3.17;2.50;;;;;;;9.34;73.64;97232.28;6077711;23;20025;-81
2023/01/06 08:52:18;;;;;;;2.42;2.05;;;;;;;9.41;73.31;97244.50;6076468;23;20058;-81
2023/01/06 09:16:07;;;;;;;2.63;2.43;;;;;;;9.75;74.60;97256.63;6073466;23;20302;-80
2023/01/06 09:22:33;;;;;;;3.78;2.80;;;;;;;9.81;74.59;97266.38;6064926;23;20345;-80
2023/01/06 09:25:29;;;;;;;2.65;2.38;;;;;;;9.83;74.40;97274.88;6068676;23;20061;-80
2023/01/06 09:27:57;;;;;;;2.65;2.45;;;;;;;9.82;74.62;97275.84;6068530;23;20083;-80
2023/01/06 09:30:25;;;;;;;3.03;2.60;;;;;;;9.85;74.96;97283.34;6068052;23;20101;-79
2023/01/06 09:32:55;;;;;;;3.45;2.70;;;;;;;9.84;75.19;97286.94;6069060;23;20106;-80
2023/01/06 09:35:23;;;;;;;3.78;2.80;;;;;;;9.85;74.79;97278.13;6069214;23;20329;-79
2023/01/06 09:37:51;;;;;;;2.58;2.38;;;;;;;9.83;75.18;97290.50;6069177;23;20103;-80
2023/01/06 09:40:23;;;;;;;2.33;1.83;;;;;;;9.85;75.43;97298.16;6068839;23;20018;-80
2023/01/06 09:43:04;;;;;;;1.63;1.52;;;;;;;9.87;75.79;97302.25;6069516;23;20034;-80
2023/01/06 09:45:38;;;;;;;2.88;1.20;;;;;;;9.88;75.42;97300.44;6069259;23;20098;-81
2023/01/06 09:48:16;;;;;;;1.20;1.10;;;;;;;9.90;75.68;97306.31;6068972;23;20144;-80
2023/01/06 09:50:57;;;;;;;2.47;1.20;;;;;;;9.93;75.59;97312.97;6070759;23;20027;-81
2023/01/06 09:57:39;;;;;;;0.70;0.60;;;;;;;9.98;75.60;97300.31;5986325;23;20072;-82
2023/01/06 10:00:59;;;;;;;1.95;0.38;;;;;;;9.99;75.60;97304.53;5995796;23;20098;-80
2023/01/06 10:04:23;;;;;;;0.47;0.40;;;;;;;9.99;75.74;97301.94;6068879;23;20026;-81
2023/01/06 10:07:01;;;;;;;1.92;0.50;;;;;;;9.98;75.36;97297.69;6068033;23;20119;-79
2023/01/06 10:09:42;;;;;;;0.43;0.40;;;;;;;9.98;75.90;97297.69;6067731;23;20018;-80
2023/01/06 10:15:53;;;;;;;0.52;0.43;;;;;;;9.97;75.59;97289.06;6068150;23;20391;-78
2023/01/06 10:18:30;;;;;;;2.70;0.95;;;;;;;9.98;75.82;97282.06;6067567;23;20029;-79
2023/01/06 10:21:09;;;;;;;0.52;0.52;;;;;;;9.99;76.06;97274.09;6067200;23;20050;-79
2023/01/06 10:23:55;;;;;;;0.55;0.55;;;;;;;10.01;76.09;97266.09;6067571;23;20464;-79
2023/01/06 10:26:29;;;;;;;0.88;0.82;;;;;;;10.04;76.51;97265.78;6067349;23;20345;-79
2023/01/06 10:29:02;;;;;;;1.23;0.90;;;;;;;10.06;76.19;97269.03;6067182;23;20054;-79
2023/01/06 10:31:34;;;;;;;1.23;1.13;;;;;;;10.09;76.30;97273.94;6066758;23;20094;-80
2023/01/06 10:34:03;;;;;;;;;;;;;;;10.14;76.22;97263.81;6071398;23;20074;-80
2023/01/06 10:39:47;;;;;;;3.03;1.38;;;;;;;10.23;77.19;97265.47;6064830;23;20034;-81
2023/01/06 10:49:45;;;;;;;1.38;1.00;;;;;;;10.38;76.06;97252.59;5928968;24;20041;-80
2023/01/06 10:53:13;;;;;;;2.20;1.10;;;;;;;10.41;76.02;97236.63;5882673;24;20382;-80
2023/01/06 10:56:49;;;;;;;0.90;0.90;;;;;;;10.44;75.64;97225.88;6017726;23;20052;-80
2023/01/06 11:06:32;;;;;;;1.65;0.80;;;;;;;10.51;74.97;97215.59;6040398;23;20027;-81
2023/01/06 11:35:48;;;;;;;1.42;0.90;;;;;;;10.61;73.30;97211.00;6069746;23;20053;-80
2023/01/06 11:38:19;;;;;;;2.10;1.02;;;;;;;10.61;73.50;97211.00;6069183;23;20015;-81
2023/01/06 11:40:49;;;;;;;0.70;0.70;;;;;;;10.62;73.87;97212.63;6069257;23;20086;-80
2023/01/06 11:43:22;;;;;;;0.70;0.60;;;;;;;10.65;73.46;97214.91;6068589;23;20425;-80
2023/01/06 11:45:56;;;;;;;0.65;0.65;;;;;;;10.66;73.96;97226.16;6068641;23;20030;-79
2023/01/06 11:48:57;;;;;;;0.80;0.80;;;;;;;10.65;73.04;97220.13;6067438;23;20022;-81
2023/01/06 11:51:50;;;;;;;3.35;0.77;;;;;;;10.66;73.39;97229.56;6085018;23;20022;-80
2023/01/06 11:54:25;;;;;;;1.27;0.70;;;;;;;10.66;73.47;97223.53;6094352;23;20021;-80
2023/01/06 11:57:02;;;;;;;1.67;0.80;;;;;;;10.65;73.16;97216.72;6080746;23;20078;-80
2023/01/06 11:59:44;;;;;;;1.10;0.80;;;;;;;10.64;73.09;97220.28;6075892;23;20023;-80
2023/01/06 12:02:21;;;;;;;0.80;0.75;;;;;;;10.64;73.17;97221.09;6077363;23;20023;-81
2023/01/06 12:13:52;;;;;;;1.90;0.65;;;;;;;10.66;73.74;97208.69;6085704;23;20078;-81
2023/01/06 12:16:55;;;;;;;0.77;0.77;;;;;;;10.65;73.28;97188.81;6077731;23;20411;-80
2023/01/06 12:19:36;;;;;;;0.60;0.60;;;;;;;10.64;73.58;97200.22;6073718;23;20352;-81
2023/01/06 12:22:05;;;;;;;0.68;0.68;;;;;;;10.68;73.53;97205.94;6083358;23;20486;-81
2023/01/06 12:24:45;;;;;;;3.33;2.10;;;;;;;10.69;73.59;97197.09;6087480;23;20029;-82
2023/01/06 12:27:23;;;;;;;1.85;0.90;;;;;;;10.69;73.29;97207.53;6080158;23;20030;-79
2023/01/06 12:29:53;;;;;;;1.02;0.98;;;;;;;10.69;73.71;97213.59;6082888;23;20019;-80
2023/01/06 12:32:27;;;;;;;1.95;1.10;;;;;;;10.71;74.18;97200.38;6094211;23;20007;-79
2023/01/06 12:35:03;;;;;;;1.15;1.05;;;;;;;10.74;74.21;97202.66;6077572;23;20050;-80
2023/01/06 12:37:36;;;;;;;1.45;1.35;;;;;;;10.76;74.43;97208.53;6083036;23;20719;-81
2023/01/06 12:40:18;;;;;;;2.13;1.48;;;;;;;10.78;74.57;97200.50;6083194;23;20023;-80
2023/01/06 12:42:53;;;;;;;1.30;1.07;;;;;;;10.78;73.98;97198.75;6073640;23;20030;-80
2023/01/06 12:45:34;;;;;;;2.00;1.67;;;;;;;10.81;74.36;97200.19;6092208;23;20249;-81
2023/01/06 12:50:41;;;;;;;2.30;2.10;;;;;;;10.83;74.15;97193.00;6086777;23;20215;-80
2023/01/06 12:53:13;;;;;;;2.17;1.98;;;;;;;10.83;74.04;97198.22;6072582;23;20459;-80
2023/01/06 12:56:33;;;;;;;1.70;1.60;;;;;;;10.84;74.23;97181.56;6076549;23;20055;-82
2023/01/06 12:59:34;;;;;;;2.00;1.90;;;;;;;10.86;73.91;97197.88;6074652;23;20019;-80
2023/01/06 13:02:19;;;;;;;2.92;2.28;;;;;;;10.82;74.03;97192.19;6068998;23;20333;-79
2023/01/06 13:04:59;;;;;;;2.50;2.30;;;;;;;10.81;74.16;97187.13;6067791;23;20027;-77
2023/01/06 13:07:39;;;;;;;2.00;1.85;;;;;;;10.78;74.22;97183.06;6067438;23;20455;-79
2023/01/06 13:10:18;;;;;;;5.03;3.33;;;;;;;10.76;74.32;97178.97;6067229;23;20027;-78
2023/01/06 13:13:21;;;;;;;2.92;2.63;;;;;;;10.75;74.76;97180.78;6067688;23;20050;-78
2023/01/06 13:15:50;;;;;;;;;;;;;;;10.77;74.50;97180.63;6068167;23;20026;-79
2023/01/06 13:18:23;;;;;;;2.80;1.77;;;;;;;10.73;74.26;97177.53;6069344;23;19918;-79
2023/01/06 13:20:57;;;;;;;2.03;1.83;;;;;;;10.71;74.18;97182.09;6069261;23;20019;-78
2023/01/06 13:23:38;;;;;;;3.28;1.83;;;;;;;10.71;74.39;97180.34;6069112;23;20098;-79
2023/01/06 13:26:26;;;;;;;2.33;1.67;;;;;;;10.72;74.79;97171.50;6068426;23;20129;-79
2023/01/06 13:29:06;;;;;;;1.60;1.50;;;;;;;10.74;74.71;97178.38;6067932;23;20101;-78
2023/01/06 13:31:55;;;;;;;1.80;1.70;;;;;;;10.76;74.48;97171.16;6067773;23;20475;-78
2023/01/06 13:34:46;;;;;;;1.88;1.58;;;;;;;10.78;74.50;97171.81;6067834;23;20026;-78
2023/01/06 13:37:27;;;;;;;1.50;1.40;;;;;;;10.78;74.40;97169.19;6068001;23;20031;-78